sensor_id;sensor_type;location;lat;lon;timestamp;P1;durP1;ratioP1;P2;durP2;ratioP2
56037;SDS011;41907;47.848;9.000;2022-09-29T00:00:07;2.40;;;1.10;;
56037;SDS011;41907;47.848;9.000;2022-09-29T00:02:33;1.48;;;1.10;;
56037;SDS011;41907;47.848;9.000;2022-09-29T00:04:58;1.92;;;1.10;;
56037;SDS011;41907;47.848;9.000;2022-09-29T00:07:24;1.85;;;1.17;;
56037;SDS011;41907;47.848;9.000;2022-09-29T00:09:49;1.48;;;1.20;;
56037;SDS011;41907;47.848;9.000;2022-09-29T00:12:14;2.00;;;1.60;;
56037;SDS011;41907;47.848;9.000;2022-09-29T00:14:40;1.60;;;1.50;;
56037;SDS011;41907;47.848;9.000;2022-09-29T00:17:05;1.88;;;1.63;;
56037;SDS011;41907;47.848;9.000;2022-09-29T00:19:30;2.28;;;1.40;;
56037;SDS011;41907;47.848;9.000;2022-09-29T00:21:57;1.27;;;1.17;;
56037;SDS011;41907;47.848;9.000;2022-09-29T00:24:23;1.58;;;1.40;;
56037;SDS011;41907;47.848;9.000;2022-09-29T00:26:48;3.40;;;1.90;;
56037;SDS011;41907;47.848;9.000;2022-09-29T00:29:13;4.30;;;2.60;;
56037;SDS011;41907;47.848;9.000;2022-09-29T00:31:39;4.97;;;2.53;;
56037;SDS011;41907;47.848;9.000;2022-09-29T00:34:04;6.38;;;3.30;;
56037;SDS011;41907;47.848;9.000;2022-09-29T00:36:30;5.40;;;2.67;;
56037;SDS011;41907;47.848;9.000;2022-09-29T00:38:55;2.97;;;2.15;;
56037;SDS011;41907;47.848;9.000;2022-09-29T00:41:22;3.03;;;2.20;;
56037;SDS011;41907;47.848;9.000;2022-09-29T00:46:36;3.08;;;1.98;;
56037;SDS011;41907;47.848;9.000;2022-09-29T00:49:24;3.28;;;1.67;;
56037;SDS011;41907;47.848;9.000;2022-09-29T00:51:52;2.50;;;1.48;;
56037;SDS011;41907;47.848;9.000;2022-09-29T00:54:32;2.35;;;1.80;;
56037;SDS011;41907;47.848;9.000;2022-09-29T00:57:02;3.20;;;1.90;;
56037;SDS011;41907;47.848;9.000;2022-09-29T00:59:35;2.22;;;1.95;;
56037;SDS011;41907;47.848;9.000;2022-09-29T01:02:15;5.20;;;3.22;;
56037;SDS011;41907;47.848;9.000;2022-09-29T01:04:43;4.55;;;2.63;;
56037;SDS011;41907;47.848;9.000;2022-09-29T01:07:10;3.72;;;2.72;;
56037;SDS011;41907;47.848;9.000;2022-09-29T01:09:37;7.05;;;2.67;;
56037;SDS011;41907;47.848;9.000;2022-09-29T01:12:06;5.30;;;2.95;;
56037;SDS011;41907;47.848;9.000;2022-09-29T01:14:32;4.43;;;2.85;;
56037;SDS011;41907;47.848;9.000;2022-09-29T01:17:00;5.78;;;3.10;;
56037;SDS011;41907;47.848;9.000;2022-09-29T01:22:04;4.93;;;2.95;;
56037;SDS011;41907;47.848;9.000;2022-09-29T01:36:54;5.18;;;2.97;;
56037;SDS011;41907;47.848;9.000;2022-09-29T01:39:33;4.18;;;2.75;;
56037;SDS011;41907;47.848;9.000;2022-09-29T01:42:04;4.18;;;2.83;;
56037;SDS011;41907;47.848;9.000;2022-09-29T01:44:51;2.85;;;2.05;;
56037;SDS011;41907;47.848;9.000;2022-09-29T01:47:30;4.68;;;2.40;;
56037;SDS011;41907;47.848;9.000;2022-09-29T01:50:05;4.32;;;2.35;;
56037;SDS011;41907;47.848;9.000;2022-09-29T01:52:46;3.42;;;2.33;;
56037;SDS011;41907;47.848;9.000;2022-09-29T01:55:17;4.82;;;2.85;;
56037;SDS011;41907;47.848;9.000;2022-09-29T01:57:52;4.38;;;2.65;;
56037;SDS011;41907;47.848;9.000;2022-09-29T02:00:22;5.97;;;2.88;;
56037;SDS011;41907;47.848;9.000;2022-09-29T02:05:23;5.28;;;3.30;;
56037;SDS011;41907;47.848;9.000;2022-09-29T02:08:00;5.35;;;3.50;;
56037;SDS011;41907;47.848;9.000;2022-09-29T02:10:42;5.97;;;3.75;;
56037;SDS011;41907;47.848;9.000;2022-09-29T02:13:14;4.85;;;3.20;;
56037;SDS011;41907;47.848;9.000;2022-09-29T02:15:44;5.63;;;3.45;;
56037;SDS011;41907;47.848;9.000;2022-09-29T02:18:17;4.82;;;2.72;;
56037;SDS011;41907;47.848;9.000;2022-09-29T02:20:46;5.45;;;2.88;;
56037;SDS011;41907;47.848;9.000;2022-09-29T02:23:12;4.15;;;2.78;;
56037;SDS011;41907;47.848;9.000;2022-09-29T02:25:38;4.70;;;2.83;;
56037;SDS011;41907;47.848;9.000;2022-09-29T02:28:05;5.28;;;2.95;;
56037;SDS011;41907;47.848;9.000;2022-09-29T02:30:31;5.57;;;2.90;;
56037;SDS011;41907;47.848;9.000;2022-09-29T02:32:56;5.20;;;3.40;;
56037;SDS011;41907;47.848;9.000;2022-09-29T02:35:21;5.07;;;2.95;;
56037;SDS011;41907;47.848;9.000;2022-09-29T02:40:31;5.38;;;3.38;;
56037;SDS011;41907;47.848;9.000;2022-09-29T02:51:42;5.00;;;2.78;;
56037;SDS011;41907;47.848;9.000;2022-09-29T02:54:29;7.72;;;3.95;;
56037;SDS011;41907;47.848;9.000;2022-09-29T02:57:11;7.38;;;3.38;;
56037;SDS011;41907;47.848;9.000;2022-09-29T02:59:51;6.45;;;3.80;;
56037;SDS011;41907;47.848;9.000;2022-09-29T03:02:29;6.07;;;3.53;;
56037;SDS011;41907;47.848;9.000;2022-09-29T03:04:54;6.45;;;3.78;;
56037;SDS011;41907;47.848;9.000;2022-09-29T03:07:20;6.07;;;3.10;;
56037;SDS011;41907;47.848;9.000;2022-09-29T03:09:46;5.97;;;3.22;;
56037;SDS011;41907;47.848;9.000;2022-09-29T03:12:11;6.68;;;3.42;;
56037;SDS011;41907;47.848;9.000;2022-09-29T03:14:36;5.82;;;3.38;;
56037;SDS011;41907;47.848;9.000;2022-09-29T03:17:02;6.65;;;2.80;;
56037;SDS011;41907;47.848;9.000;2022-09-29T03:19:27;5.55;;;3.35;;
56037;SDS011;41907;47.848;9.000;2022-09-29T03:21:53;5.40;;;3.17;;
56037;SDS011;41907;47.848;9.000;2022-09-29T03:24:18;5.15;;;3.00;;
56037;SDS011;41907;47.848;9.000;2022-09-29T03:26:44;5.15;;;3.05;;
56037;SDS011;41907;47.848;9.000;2022-09-29T03:29:09;4.72;;;3.40;;
56037;SDS011;41907;47.848;9.000;2022-09-29T03:31:34;5.25;;;2.88;;
56037;SDS011;41907;47.848;9.000;2022-09-29T03:33:59;3.40;;;2.58;;
56037;SDS011;41907;47.848;9.000;2022-09-29T03:36:25;4.88;;;3.25;;
56037;SDS011;41907;47.848;9.000;2022-09-29T03:38:51;5.05;;;3.47;;
56037;SDS011;41907;47.848;9.000;2022-09-29T03:41:16;5.43;;;3.15;;
56037;SDS011;41907;47.848;9.000;2022-09-29T03:43:42;7.88;;;3.55;;
56037;SDS011;41907;47.848;9.000;2022-09-29T03:46:07;5.57;;;3.17;;
56037;SDS011;41907;47.848;9.000;2022-09-29T03:48:32;5.53;;;2.92;;
56037;SDS011;41907;47.848;9.000;2022-09-29T03:50:59;7.18;;;3.53;;
56037;SDS011;41907;47.848;9.000;2022-09-29T03:53:25;6.30;;;2.75;;
56037;SDS011;41907;47.848;9.000;2022-09-29T03:55:50;4.55;;;3.08;;
56037;SDS011;41907;47.848;9.000;2022-09-29T03:58:16;6.30;;;2.95;;
56037;SDS011;41907;47.848;9.000;2022-09-29T04:00:42;5.13;;;3.10;;
56037;SDS011;41907;47.848;9.000;2022-09-29T04:03:08;4.32;;;3.08;;
56037;SDS011;41907;47.848;9.000;2022-09-29T04:05:34;4.50;;;2.70;;
56037;SDS011;41907;47.848;9.000;2022-09-29T04:08:03;5.30;;;3.30;;
56037;SDS011;41907;47.848;9.000;2022-09-29T04:10:29;5.65;;;3.20;;
56037;SDS011;41907;47.848;9.000;2022-09-29T04:12:54;5.72;;;3.38;;
56037;SDS011;41907;47.848;9.000;2022-09-29T04:15:19;5.07;;;3.60;;
56037;SDS011;41907;47.848;9.000;2022-09-29T04:17:45;3.60;;;2.72;;
56037;SDS011;41907;47.848;9.000;2022-09-29T04:20:10;5.90;;;3.35;;
56037;SDS011;41907;47.848;9.000;2022-09-29T04:22:35;6.93;;;4.22;;
56037;SDS011;41907;47.848;9.000;2022-09-29T04:25:01;6.32;;;3.72;;
56037;SDS011;41907;47.848;9.000;2022-09-29T04:27:26;9.05;;;4.35;;
56037;SDS011;41907;47.848;9.000;2022-09-29T04:29:51;8.20;;;4.72;;
56037;SDS011;41907;47.848;9.000;2022-09-29T04:32:17;10.32;;;4.90;;
56037;SDS011;41907;47.848;9.000;2022-09-29T04:34:42;7.80;;;4.43;;
56037;SDS011;41907;47.848;9.000;2022-09-29T04:37:08;9.50;;;4.78;;
56037;SDS011;41907;47.848;9.000;2022-09-29T04:39:35;8.68;;;5.35;;
56037;SDS011;41907;47.848;9.000;2022-09-29T04:42:01;6.63;;;4.47;;
56037;SDS011;41907;47.848;9.000;2022-09-29T04:44:26;8.52;;;4.90;;
56037;SDS011;41907;47.848;9.000;2022-09-29T04:46:51;6.18;;;4.03;;
56037;SDS011;41907;47.848;9.000;2022-09-29T04:49:17;6.97;;;3.72;;
56037;SDS011;41907;47.848;9.000;2022-09-29T04:51:43;10.30;;;4.90;;
56037;SDS011;41907;47.848;9.000;2022-09-29T04:54:08;7.63;;;4.28;;
56037;SDS011;41907;47.848;9.000;2022-09-29T04:56:34;8.43;;;4.82;;
56037;SDS011;41907;47.848;9.000;2022-09-29T04:58:59;7.70;;;4.75;;
56037;SDS011;41907;47.848;9.000;2022-09-29T05:01:25;6.93;;;3.85;;
56037;SDS011;41907;47.848;9.000;2022-09-29T05:03:51;7.32;;;4.88;;
56037;SDS011;41907;47.848;9.000;2022-09-29T05:06:16;9.32;;;5.05;;
56037;SDS011;41907;47.848;9.000;2022-09-29T05:08:42;10.38;;;5.00;;
56037;SDS011;41907;47.848;9.000;2022-09-29T05:11:07;7.53;;;4.35;;
56037;SDS011;41907;47.848;9.000;2022-09-29T05:13:34;8.45;;;5.18;;
56037;SDS011;41907;47.848;9.000;2022-09-29T05:16:00;7.95;;;5.10;;
56037;SDS011;41907;47.848;9.000;2022-09-29T05:18:26;8.73;;;4.95;;
56037;SDS011;41907;47.848;9.000;2022-09-29T05:20:51;8.18;;;4.57;;
56037;SDS011;41907;47.848;9.000;2022-09-29T05:23:17;9.80;;;4.13;;
56037;SDS011;41907;47.848;9.000;2022-09-29T05:25:43;7.13;;;4.80;;
56037;SDS011;41907;47.848;9.000;2022-09-29T05:28:09;14.77;;;5.13;;
56037;SDS011;41907;47.848;9.000;2022-09-29T05:30:35;7.72;;;4.25;;
56037;SDS011;41907;47.848;9.000;2022-09-29T05:33:01;6.88;;;4.20;;
56037;SDS011;41907;47.848;9.000;2022-09-29T05:35:26;9.77;;;4.72;;
56037;SDS011;41907;47.848;9.000;2022-09-29T05:37:52;7.70;;;4.60;;
56037;SDS011;41907;47.848;9.000;2022-09-29T05:40:17;10.88;;;4.95;;
56037;SDS011;41907;47.848;9.000;2022-09-29T05:42:43;9.80;;;5.90;;
56037;SDS011;41907;47.848;9.000;2022-09-29T05:45:09;7.57;;;4.60;;
56037;SDS011;41907;47.848;9.000;2022-09-29T05:47:39;10.55;;;4.50;;
56037;SDS011;41907;47.848;9.000;2022-09-29T05:50:05;8.00;;;4.70;;
56037;SDS011;41907;47.848;9.000;2022-09-29T05:52:31;6.95;;;4.43;;
56037;SDS011;41907;47.848;9.000;2022-09-29T05:54:56;9.38;;;5.05;;
56037;SDS011;41907;47.848;9.000;2022-09-29T05:57:21;7.22;;;4.40;;
56037;SDS011;41907;47.848;9.000;2022-09-29T05:59:47;8.13;;;4.40;;
56037;SDS011;41907;47.848;9.000;2022-09-29T06:02:12;8.88;;;4.82;;
56037;SDS011;41907;47.848;9.000;2022-09-29T06:04:37;8.65;;;5.30;;
56037;SDS011;41907;47.848;9.000;2022-09-29T06:07:03;9.40;;;5.03;;
56037;SDS011;41907;47.848;9.000;2022-09-29T06:09:28;11.05;;;6.70;;
56037;SDS011;41907;47.848;9.000;2022-09-29T06:11:54;8.63;;;5.22;;
56037;SDS011;41907;47.848;9.000;2022-09-29T06:14:19;10.40;;;5.68;;
56037;SDS011;41907;47.848;9.000;2022-09-29T06:16:44;7.00;;;3.90;;
56037;SDS011;41907;47.848;9.000;2022-09-29T06:19:10;8.18;;;4.45;;
56037;SDS011;41907;47.848;9.000;2022-09-29T06:21:35;11.63;;;3.97;;
56037;SDS011;41907;47.848;9.000;2022-09-29T06:24:01;6.55;;;3.95;;
56037;SDS011;41907;47.848;9.000;2022-09-29T06:26:28;9.60;;;4.90;;
56037;SDS011;41907;47.848;9.000;2022-09-29T06:28:54;9.43;;;4.70;;
56037;SDS011;41907;47.848;9.000;2022-09-29T06:31:21;9.60;;;4.28;;
56037;SDS011;41907;47.848;9.000;2022-09-29T06:33:48;8.35;;;5.00;;
56037;SDS011;41907;47.848;9.000;2022-09-29T06:39:04;10.15;;;5.45;;
56037;SDS011;41907;47.848;9.000;2022-09-29T06:41:31;10.55;;;5.75;;
56037;SDS011;41907;47.848;9.000;2022-09-29T06:43:56;47.33;;;23.02;;
56037;SDS011;41907;47.848;9.000;2022-09-29T06:46:21;52.10;;;27.27;;
56037;SDS011;41907;47.848;9.000;2022-09-29T06:48:47;13.05;;;8.85;;
56037;SDS011;41907;47.848;9.000;2022-09-29T06:51:12;10.43;;;6.28;;
56037;SDS011;41907;47.848;9.000;2022-09-29T06:53:38;13.23;;;7.85;;
56037;SDS011;41907;47.848;9.000;2022-09-29T06:56:04;12.82;;;5.88;;
56037;SDS011;41907;47.848;9.000;2022-09-29T06:58:30;10.13;;;5.93;;
56037;SDS011;41907;47.848;9.000;2022-09-29T07:00:58;11.05;;;6.55;;
56037;SDS011;41907;47.848;9.000;2022-09-29T07:03:25;19.42;;;8.70;;
56037;SDS011;41907;47.848;9.000;2022-09-29T07:05:50;15.63;;;8.65;;
56037;SDS011;41907;47.848;9.000;2022-09-29T07:08:16;17.20;;;9.35;;
56037;SDS011;41907;47.848;9.000;2022-09-29T07:10:41;16.92;;;8.43;;
56037;SDS011;41907;47.848;9.000;2022-09-29T07:13:06;16.60;;;9.13;;
56037;SDS011;41907;47.848;9.000;2022-09-29T07:15:33;18.00;;;8.73;;
56037;SDS011;41907;47.848;9.000;2022-09-29T07:17:59;15.90;;;8.30;;
56037;SDS011;41907;47.848;9.000;2022-09-29T07:20:29;16.48;;;9.18;;
56037;SDS011;41907;47.848;9.000;2022-09-29T07:22:55;13.20;;;7.63;;
56037;SDS011;41907;47.848;9.000;2022-09-29T07:25:21;13.80;;;7.57;;
56037;SDS011;41907;47.848;9.000;2022-09-29T07:27:48;15.10;;;8.45;;
56037;SDS011;41907;47.848;9.000;2022-09-29T07:30:15;15.88;;;9.10;;
56037;SDS011;41907;47.848;9.000;2022-09-29T07:32:40;16.67;;;9.75;;
56037;SDS011;41907;47.848;9.000;2022-09-29T07:35:06;19.38;;;10.00;;
56037;SDS011;41907;47.848;9.000;2022-09-29T07:37:31;17.10;;;8.75;;
56037;SDS011;41907;47.848;9.000;2022-09-29T07:39:57;16.00;;;8.68;;
56037;SDS011;41907;47.848;9.000;2022-09-29T07:42:22;26.90;;;16.45;;
56037;SDS011;41907;47.848;9.000;2022-09-29T07:44:47;16.73;;;9.23;;
56037;SDS011;41907;47.848;9.000;2022-09-29T07:47:13;15.60;;;8.70;;
56037;SDS011;41907;47.848;9.000;2022-09-29T07:49:39;19.42;;;10.85;;
56037;SDS011;41907;47.848;9.000;2022-09-29T07:52:04;42.05;;;27.63;;
56037;SDS011;41907;47.848;9.000;2022-09-29T07:54:30;25.75;;;14.07;;
56037;SDS011;41907;47.848;9.000;2022-09-29T07:56:55;17.17;;;8.98;;
56037;SDS011;41907;47.848;9.000;2022-09-29T07:59:21;12.98;;;7.03;;
56037;SDS011;41907;47.848;9.000;2022-09-29T08:01:46;12.32;;;7.30;;
56037;SDS011;41907;47.848;9.000;2022-09-29T08:04:12;6.55;;;4.28;;
56037;SDS011;41907;47.848;9.000;2022-09-29T08:06:37;8.10;;;4.30;;
56037;SDS011;41907;47.848;9.000;2022-09-29T08:09:04;6.82;;;3.22;;
56037;SDS011;41907;47.848;9.000;2022-09-29T08:11:29;4.82;;;3.22;;
56037;SDS011;41907;47.848;9.000;2022-09-29T08:13:56;7.47;;;4.20;;
56037;SDS011;41907;47.848;9.000;2022-09-29T08:16:21;6.88;;;3.08;;
56037;SDS011;41907;47.848;9.000;2022-09-29T08:18:47;7.20;;;4.55;;
56037;SDS011;41907;47.848;9.000;2022-09-29T08:21:12;9.02;;;5.40;;
56037;SDS011;41907;47.848;9.000;2022-09-29T08:23:39;10.32;;;6.07;;
56037;SDS011;41907;47.848;9.000;2022-09-29T08:26:07;10.77;;;6.13;;
56037;SDS011;41907;47.848;9.000;2022-09-29T08:28:38;9.75;;;6.07;;
56037;SDS011;41907;47.848;9.000;2022-09-29T08:31:07;7.85;;;5.25;;
56037;SDS011;41907;47.848;9.000;2022-09-29T08:33:35;9.35;;;5.53;;
56037;SDS011;41907;47.848;9.000;2022-09-29T08:36:01;6.55;;;4.80;;
56037;SDS011;41907;47.848;9.000;2022-09-29T08:38:30;8.30;;;5.30;;
56037;SDS011;41907;47.848;9.000;2022-09-29T08:40:56;9.13;;;5.22;;
56037;SDS011;41907;47.848;9.000;2022-09-29T08:43:28;5.63;;;3.85;;
56037;SDS011;41907;47.848;9.000;2022-09-29T08:46:03;4.07;;;2.40;;
56037;SDS011;41907;47.848;9.000;2022-09-29T08:48:37;3.63;;;2.42;;
56037;SDS011;41907;47.848;9.000;2022-09-29T08:51:17;7.15;;;4.60;;
56037;SDS011;41907;47.848;9.000;2022-09-29T08:53:51;6.65;;;4.35;;
56037;SDS011;41907;47.848;9.000;2022-09-29T08:56:19;7.53;;;4.68;;
56037;SDS011;41907;47.848;9.000;2022-09-29T08:58:45;4.45;;;3.67;;
56037;SDS011;41907;47.848;9.000;2022-09-29T09:06:35;16.05;;;8.27;;
56037;SDS011;41907;47.848;9.000;2022-09-29T09:09:28;53.15;;;19.05;;
56037;SDS011;41907;47.848;9.000;2022-09-29T09:15:22;5.60;;;3.60;;
56037;SDS011;41907;47.848;9.000;2022-09-29T09:23:14;5.30;;;4.05;;
56037;SDS011;41907;47.848;9.000;2022-09-29T09:26:00;6.85;;;4.15;;
56037;SDS011;41907;47.848;9.000;2022-09-29T09:28:29;8.27;;;4.80;;
56037;SDS011;41907;47.848;9.000;2022-09-29T09:33:42;35.30;;;16.35;;
56037;SDS011;41907;47.848;9.000;2022-09-29T09:41:09;16.95;;;8.40;;
56037;SDS011;41907;47.848;9.000;2022-09-29T09:43:38;21.77;;;12.27;;
56037;SDS011;41907;47.848;9.000;2022-09-29T09:46:19;12.27;;;7.05;;
56037;SDS011;41907;47.848;9.000;2022-09-29T10:00:10;12.15;;;7.07;;
56037;SDS011;41907;47.848;9.000;2022-09-29T10:02:43;12.45;;;7.28;;
56037;SDS011;41907;47.848;9.000;2022-09-29T10:05:16;21.05;;;15.15;;
56037;SDS011;41907;47.848;9.000;2022-09-29T10:07:43;22.30;;;14.23;;
56037;SDS011;41907;47.848;9.000;2022-09-29T10:10:15;13.63;;;9.38;;
56037;SDS011;41907;47.848;9.000;2022-09-29T10:13:05;11.80;;;7.80;;
56037;SDS011;41907;47.848;9.000;2022-09-29T10:15:35;14.75;;;8.75;;
56037;SDS011;41907;47.848;9.000;2022-09-29T10:20:37;35.42;;;24.15;;
56037;SDS011;41907;47.848;9.000;2022-09-29T10:23:18;19.10;;;12.73;;
56037;SDS011;41907;47.848;9.000;2022-09-29T10:29:21;16.25;;;10.75;;
56037;SDS011;41907;47.848;9.000;2022-09-29T10:31:42;20.00;;;11.38;;
56037;SDS011;41907;47.848;9.000;2022-09-29T10:42:40;27.40;;;16.73;;
56037;SDS011;41907;47.848;9.000;2022-09-29T10:45:00;19.30;;;11.77;;
56037;SDS011;41907;47.848;9.000;2022-09-29T10:47:35;17.08;;;10.23;;
56037;SDS011;41907;47.848;9.000;2022-09-29T10:50:06;13.32;;;7.05;;
56037;SDS011;41907;47.848;9.000;2022-09-29T10:52:36;8.45;;;5.25;;
56037;SDS011;41907;47.848;9.000;2022-09-29T10:55:02;4.25;;;3.05;;
56037;SDS011;41907;47.848;9.000;2022-09-29T10:57:30;2.70;;;1.52;;
56037;SDS011;41907;47.848;9.000;2022-09-29T10:59:57;2.08;;;1.67;;
56037;SDS011;41907;47.848;9.000;2022-09-29T11:02:25;3.60;;;1.77;;
56037;SDS011;41907;47.848;9.000;2022-09-29T11:05:04;3.47;;;2.17;;
56037;SDS011;41907;47.848;9.000;2022-09-29T11:07:44;2.28;;;1.15;;
56037;SDS011;41907;47.848;9.000;2022-09-29T11:10:32;2.10;;;1.10;;
56037;SDS011;41907;47.848;9.000;2022-09-29T11:13:14;1.52;;;0.95;;
56037;SDS011;41907;47.848;9.000;2022-09-29T11:15:48;1.75;;;1.27;;
56037;SDS011;41907;47.848;9.000;2022-09-29T11:18:25;1.17;;;0.85;;
56037;SDS011;41907;47.848;9.000;2022-09-29T11:21:17;3.60;;;2.10;;
56037;SDS011;41907;47.848;9.000;2022-09-29T11:29:10;2.92;;;1.75;;
56037;SDS011;41907;47.848;9.000;2022-09-29T11:48:32;1.35;;;1.02;;
56037;SDS011;41907;47.848;9.000;2022-09-29T11:54:11;1.83;;;1.10;;
56037;SDS011;41907;47.848;9.000;2022-09-29T12:17:12;1.08;;;0.70;;
56037;SDS011;41907;47.848;9.000;2022-09-29T12:19:42;1.58;;;1.25;;
56037;SDS011;41907;47.848;9.000;2022-09-29T12:22:11;1.20;;;1.10;;
56037;SDS011;41907;47.848;9.000;2022-09-29T12:24:44;2.92;;;0.80;;
56037;SDS011;41907;47.848;9.000;2022-09-29T12:27:20;1.20;;;1.20;;
56037;SDS011;41907;47.848;9.000;2022-09-29T12:29:52;1.55;;;0.98;;
56037;SDS011;41907;47.848;9.000;2022-09-29T12:32:24;0.98;;;0.88;;
56037;SDS011;41907;47.848;9.000;2022-09-29T12:34:58;2.20;;;1.05;;
56037;SDS011;41907;47.848;9.000;2022-09-29T12:37:33;0.70;;;0.68;;
56037;SDS011;41907;47.848;9.000;2022-09-29T12:40:11;0.80;;;0.60;;
56037;SDS011;41907;47.848;9.000;2022-09-29T12:45:42;2.88;;;2.63;;
56037;SDS011;41907;47.848;9.000;2022-09-29T12:50:47;5.07;;;3.00;;
56037;SDS011;41907;47.848;9.000;2022-09-29T12:56:25;49.58;;;20.98;;
56037;SDS011;41907;47.848;9.000;2022-09-29T13:01:27;3.83;;;2.17;;
56037;SDS011;41907;47.848;9.000;2022-09-29T13:24:13;1.00;;;0.90;;
56037;SDS011;41907;47.848;9.000;2022-09-29T13:29:31;0.50;;;0.50;;
56037;SDS011;41907;47.848;9.000;2022-09-29T13:32:04;1.17;;;0.70;;
56037;SDS011;41907;47.848;9.000;2022-09-29T13:34:33;1.85;;;0.73;;
56037;SDS011;41907;47.848;9.000;2022-09-29T13:37:15;2.15;;;0.88;;
56037;SDS011;41907;47.848;9.000;2022-09-29T13:48:00;31.05;;;17.05;;
56037;SDS011;41907;47.848;9.000;2022-09-29T13:50:50;5.75;;;3.65;;
56037;SDS011;41907;47.848;9.000;2022-09-29T13:55:53;0.57;;;0.45;;
56037;SDS011;41907;47.848;9.000;2022-09-29T13:58:23;2.67;;;2.47;;
56037;SDS011;41907;47.848;9.000;2022-09-29T14:00:53;1.42;;;0.73;;
56037;SDS011;41907;47.848;9.000;2022-09-29T14:03:25;0.73;;;0.68;;
56037;SDS011;41907;47.848;9.000;2022-09-29T14:08:47;2.67;;;2.47;;
56037;SDS011;41907;47.848;9.000;2022-09-29T14:11:18;2.15;;;2.00;;
56037;SDS011;41907;47.848;9.000;2022-09-29T14:24:51;1.27;;;1.05;;
56037;SDS011;41907;47.848;9.000;2022-09-29T14:27:27;0.50;;;0.50;;
56037;SDS011;41907;47.848;9.000;2022-09-29T14:32:38;0.68;;;0.32;;
56037;SDS011;41907;47.848;9.000;2022-09-29T14:35:17;0.50;;;0.50;;
56037;SDS011;41907;47.848;9.000;2022-09-29T14:37:47;0.73;;;0.40;;
56037;SDS011;41907;47.848;9.000;2022-09-29T14:40:22;0.70;;;0.32;;
56037;SDS011;41907;47.848;9.000;2022-09-29T14:48:19;8.52;;;4.65;;
56037;SDS011;41907;47.848;9.000;2022-09-29T14:51:35;0.80;;;0.70;;
56037;SDS011;41907;47.848;9.000;2022-09-29T14:57:10;2.30;;;0.88;;
56037;SDS011;41907;47.848;9.000;2022-09-29T15:02:21;0.90;;;0.63;;
56037;SDS011;41907;47.848;9.000;2022-09-29T15:04:50;0.50;;;0.50;;
56037;SDS011;41907;47.848;9.000;2022-09-29T15:07:21;1.50;;;0.90;;
56037;SDS011;41907;47.848;9.000;2022-09-29T15:09:49;1.13;;;1.00;;
56037;SDS011;41907;47.848;9.000;2022-09-29T15:12:23;3.00;;;1.52;;
56037;SDS011;41907;47.848;9.000;2022-09-29T15:14:52;9.23;;;5.93;;
56037;SDS011;41907;47.848;9.000;2022-09-29T15:20:32;2.45;;;1.30;;
56037;SDS011;41907;47.848;9.000;2022-09-29T15:25:58;13.07;;;6.53;;
56037;SDS011;41907;47.848;9.000;2022-09-29T15:28:30;3.45;;;1.70;;
56037;SDS011;41907;47.848;9.000;2022-09-29T15:30:59;28.77;;;12.82;;
56037;SDS011;41907;47.848;9.000;2022-09-29T15:33:29;8.55;;;3.90;;
56037;SDS011;41907;47.848;9.000;2022-09-29T15:35:58;1.83;;;1.00;;
56037;SDS011;41907;47.848;9.000;2022-09-29T15:38:31;1.45;;;0.50;;
56037;SDS011;41907;47.848;9.000;2022-09-29T15:41:01;1.08;;;0.98;;
56037;SDS011;41907;47.848;9.000;2022-09-29T15:43:34;0.80;;;0.40;;
56037;SDS011;41907;47.848;9.000;2022-09-29T15:46:15;0.82;;;0.60;;
56037;SDS011;41907;47.848;9.000;2022-09-29T15:51:31;0.55;;;0.40;;
56037;SDS011;41907;47.848;9.000;2022-09-29T15:53:56;10.80;;;5.30;;
56037;SDS011;41907;47.848;9.000;2022-09-29T15:56:24;9.23;;;4.82;;
56037;SDS011;41907;47.848;9.000;2022-09-29T15:58:50;4.05;;;1.58;;
56037;SDS011;41907;47.848;9.000;2022-09-29T16:01:17;0.57;;;0.57;;
56037;SDS011;41907;47.848;9.000;2022-09-29T16:03:43;0.43;;;0.35;;
56037;SDS011;41907;47.848;9.000;2022-09-29T16:06:26;0.45;;;0.35;;
56037;SDS011;41907;47.848;9.000;2022-09-29T16:09:00;0.60;;;0.40;;
56037;SDS011;41907;47.848;9.000;2022-09-29T16:11:32;1.08;;;0.70;;
56037;SDS011;41907;47.848;9.000;2022-09-29T16:16:40;0.90;;;0.40;;
56037;SDS011;41907;47.848;9.000;2022-09-29T16:19:42;0.30;;;0.30;;
56037;SDS011;41907;47.848;9.000;2022-09-29T16:22:03;2.67;;;0.63;;
56037;SDS011;41907;47.848;9.000;2022-09-29T16:24:33;0.80;;;0.50;;
56037;SDS011;41907;47.848;9.000;2022-09-29T16:27:00;2.33;;;2.13;;
56037;SDS011;41907;47.848;9.000;2022-09-29T16:29:29;1.80;;;1.33;;
56037;SDS011;41907;47.848;9.000;2022-09-29T16:31:56;1.60;;;1.20;;
56037;SDS011;41907;47.848;9.000;2022-09-29T16:34:27;1.45;;;1.25;;
56037;SDS011;41907;47.848;9.000;2022-09-29T16:37:04;1.40;;;1.30;;
56037;SDS011;41907;47.848;9.000;2022-09-29T16:39:39;1.55;;;1.10;;
56037;SDS011;41907;47.848;9.000;2022-09-29T16:42:21;2.20;;;1.98;;
56037;SDS011;41907;47.848;9.000;2022-09-29T16:44:49;0.90;;;0.70;;
56037;SDS011;41907;47.848;9.000;2022-09-29T16:49:52;0.57;;;0.40;;
56037;SDS011;41907;47.848;9.000;2022-09-29T16:52:20;0.95;;;0.80;;
56037;SDS011;41907;47.848;9.000;2022-09-29T16:54:50;1.58;;;0.60;;
56037;SDS011;41907;47.848;9.000;2022-09-29T16:57:22;0.22;;;0.22;;
56037;SDS011;41907;47.848;9.000;2022-09-29T16:59:54;0.30;;;0.30;;
56037;SDS011;41907;47.848;9.000;2022-09-29T17:02:21;2.38;;;0.40;;
56037;SDS011;41907;47.848;9.000;2022-09-29T17:04:48;0.82;;;0.55;;
56037;SDS011;41907;47.848;9.000;2022-09-29T17:07:15;1.20;;;0.80;;
56037;SDS011;41907;47.848;9.000;2022-09-29T17:09:43;0.68;;;0.57;;
56037;SDS011;41907;47.848;9.000;2022-09-29T17:12:13;1.58;;;0.47;;
56037;SDS011;41907;47.848;9.000;2022-09-29T17:14:40;0.93;;;0.60;;
56037;SDS011;41907;47.848;9.000;2022-09-29T17:17:08;0.95;;;0.80;;
56037;SDS011;41907;47.848;9.000;2022-09-29T17:19:40;3.25;;;2.22;;
56037;SDS011;41907;47.848;9.000;2022-09-29T17:22:11;2.42;;;1.98;;
56037;SDS011;41907;47.848;9.000;2022-09-29T17:24:46;2.90;;;2.40;;
56037;SDS011;41907;47.848;9.000;2022-09-29T17:27:11;5.75;;;3.70;;
56037;SDS011;41907;47.848;9.000;2022-09-29T17:29:55;5.32;;;3.97;;
56037;SDS011;41907;47.848;9.000;2022-09-29T17:32:20;4.60;;;3.33;;
56037;SDS011;41907;47.848;9.000;2022-09-29T17:34:47;2.33;;;1.95;;
56037;SDS011;41907;47.848;9.000;2022-09-29T17:37:13;1.02;;;1.02;;
56037;SDS011;41907;47.848;9.000;2022-09-29T17:39:42;1.70;;;1.15;;
56037;SDS011;41907;47.848;9.000;2022-09-29T17:42:07;1.95;;;1.70;;
56037;SDS011;41907;47.848;9.000;2022-09-29T17:44:33;2.67;;;1.80;;
56037;SDS011;41907;47.848;9.000;2022-09-29T17:46:58;2.75;;;2.00;;
56037;SDS011;41907;47.848;9.000;2022-09-29T17:49:24;2.75;;;2.30;;
56037;SDS011;41907;47.848;9.000;2022-09-29T17:51:49;3.55;;;2.28;;
56037;SDS011;41907;47.848;9.000;2022-09-29T17:54:16;2.03;;;1.70;;
56037;SDS011;41907;47.848;9.000;2022-09-29T17:56:42;3.33;;;2.28;;
56037;SDS011;41907;47.848;9.000;2022-09-29T17:59:08;3.63;;;2.00;;
56037;SDS011;41907;47.848;9.000;2022-09-29T18:01:34;3.15;;;2.47;;
56037;SDS011;41907;47.848;9.000;2022-09-29T18:04:01;5.38;;;4.43;;
56037;SDS011;41907;47.848;9.000;2022-09-29T18:06:27;7.30;;;5.40;;
56037;SDS011;41907;47.848;9.000;2022-09-29T18:08:53;5.30;;;4.00;;
56037;SDS011;41907;47.848;9.000;2022-09-29T18:11:20;5.13;;;3.35;;
56037;SDS011;41907;47.848;9.000;2022-09-29T18:13:46;5.68;;;2.92;;
56037;SDS011;41907;47.848;9.000;2022-09-29T18:16:15;4.80;;;2.53;;
56037;SDS011;41907;47.848;9.000;2022-09-29T18:18:45;3.78;;;2.72;;
56037;SDS011;41907;47.848;9.000;2022-09-29T18:21:11;6.65;;;3.60;;
56037;SDS011;41907;47.848;9.000;2022-09-29T18:23:37;7.07;;;2.85;;
56037;SDS011;41907;47.848;9.000;2022-09-29T18:26:04;4.18;;;2.90;;
56037;SDS011;41907;47.848;9.000;2022-09-29T18:28:30;2.83;;;2.00;;